createdAt,value
2023-05-19T00:01:38.899Z,99858.41
2023-05-19T00:04:08.727Z,99861.09
2023-05-19T00:06:38.504Z,99863.03
2023-05-19T00:09:12.077Z,99860.22
2023-05-19T00:11:41.872Z,99859.84
2023-05-19T00:14:11.793Z,99853.69
2023-05-19T00:16:42.445Z,99863.00
2023-05-19T00:19:12.269Z,99857.13
2023-05-19T00:21:41.120Z,99850.22
2023-05-19T00:24:11.370Z,99855.53
2023-05-19T00:26:40.299Z,99843.53
2023-05-19T00:29:09.132Z,99846.94
2023-05-19T00:31:37.884Z,99856.34
2023-05-19T00:34:06.772Z,99849.88
2023-05-19T00:36:35.605Z,99853.78
2023-05-19T00:39:05.766Z,99847.91
2023-05-19T00:41:36.195Z,99852.59
2023-05-19T00:44:05.146Z,99855.69
2023-05-19T00:46:34.137Z,99846.50
2023-05-19T00:49:02.976Z,99855.16
2023-05-19T00:51:32.734Z,99849.63
2023-05-19T00:54:01.750Z,99848.13
2023-05-19T00:56:30.995Z,99848.31
2023-05-19T00:59:04.417Z,99839.00
2023-05-19T01:01:33.606Z,99844.03
2023-05-19T01:04:04.138Z,99846.94
2023-05-19T01:06:33.300Z,99847.81
2023-05-19T01:09:02.078Z,99843.44
2023-05-19T01:11:31.929Z,99836.06
2023-05-19T01:14:02.300Z,99843.25
2023-05-19T01:16:38.251Z,99837.25
2023-05-19T01:19:22.907Z,99846.59
2023-05-19T01:22:25.707Z,99843.28
2023-05-19T01:25:44.789Z,99841.00
2023-05-19T01:28:49.025Z,99838.13
2023-05-19T01:31:23.937Z,99838.00
2023-05-19T01:33:55.753Z,99837.19
2023-05-19T01:36:27.938Z,99842.56
2023-05-19T01:39:00.000Z,99845.16
2023-05-19T01:41:30.833Z,99841.84
2023-05-19T01:44:00.552Z,99846.56
2023-05-19T01:46:31.058Z,99849.03
2023-05-19T01:49:00.918Z,99842.16
2023-05-19T01:51:30.049Z,99849.56
2023-05-19T01:53:59.052Z,99846.03
2023-05-19T01:56:42.567Z,99846.69
2023-05-19T01:59:30.984Z,99847.19
2023-05-19T02:02:08.738Z,99843.13
2023-05-19T02:04:49.495Z,99832.06
2023-05-19T02:07:32.462Z,99836.38
2023-05-19T02:10:12.199Z,99831.75
2023-05-19T02:12:42.685Z,99841.66
2023-05-19T02:15:17.599Z,99830.59
2023-05-19T02:17:54.475Z,99836.38
2023-05-19T02:20:23.563Z,99826.50
2023-05-19T02:22:52.513Z,99826.09
2023-05-19T02:25:21.696Z,99834.97
2023-05-19T02:27:50.537Z,99839.72
2023-05-19T02:30:19.478Z,99828.78
2023-05-19T02:32:49.811Z,99830.69
2023-05-19T02:35:19.074Z,99832.31
2023-05-19T02:37:48.009Z,99832.28
2023-05-19T02:40:16.776Z,99829.19
2023-05-19T02:42:46.113Z,99832.88
2023-05-19T02:45:15.497Z,99830.59
2023-05-19T02:47:44.349Z,99829.34
2023-05-19T02:50:14.804Z,99819.50
2023-05-19T02:52:43.599Z,99815.44
2023-05-19T02:55:17.102Z,99818.34
2023-05-19T02:57:46.305Z,99818.34
2023-05-19T03:00:16.618Z,99812.34
2023-05-19T03:02:46.579Z,99809.03
2023-05-19T03:05:17.092Z,99805.97
2023-05-19T03:07:45.892Z,99808.84
2023-05-19T03:10:14.820Z,99811.34
2023-05-19T03:12:43.690Z,99809.69
2023-05-19T03:15:15.161Z,99816.69
2023-05-19T03:17:44.158Z,99821.19
2023-05-19T03:20:16.166Z,99814.22
2023-05-19T03:22:46.449Z,99815.41
2023-05-19T03:25:15.525Z,99812.72
2023-05-19T03:27:44.532Z,99819.94
2023-05-19T03:30:15.388Z,99814.38
2023-05-19T03:33:19.173Z,99817.91
2023-05-19T03:35:48.564Z,99826.16
2023-05-19T03:38:19.315Z,99821.59
2023-05-19T03:40:57.219Z,99816.66
2023-05-19T03:43:26.262Z,99814.41
2023-05-19T03:45:59.907Z,99814.63
2023-05-19T03:48:43.786Z,99819.56
2023-05-19T03:51:18.253Z,99821.81
2023-05-19T03:53:50.439Z,99820.16
2023-05-19T03:56:23.171Z,99828.00
2023-05-19T03:58:52.061Z,99823.47
2023-05-19T04:01:21.173Z,99830.28
2023-05-19T04:03:50.353Z,99826.56
2023-05-19T04:06:20.434Z,99821.19
2023-05-19T04:08:51.330Z,99816.22
2023-05-19T04:11:21.610Z,99826.31
2023-05-19T04:13:51.331Z,99824.22
2023-05-19T04:16:21.424Z,99823.81
2023-05-19T04:18:50.348Z,99823.59
2023-05-19T04:21:22.706Z,99819.28
2023-05-19T04:23:53.153Z,99818.88
2023-05-19T04:26:22.775Z,99811.88
2023-05-19T04:28:52.176Z,99821.56
2023-05-19T04:31:21.883Z,99813.72
2023-05-19T04:33:50.905Z,99811.44
2023-05-19T04:36:21.801Z,99803.97
2023-05-19T04:39:02.473Z,99807.47
2023-05-19T04:41:33.900Z,99801.66
2023-05-19T04:44:07.639Z,99812.81
2023-05-19T04:46:36.957Z,99813.59
2023-05-19T04:49:07.913Z,99818.91
2023-05-19T04:51:37.033Z,99820.09
2023-05-19T04:54:11.170Z,99810.81
2023-05-19T04:56:40.570Z,99815.31
2023-05-19T04:59:09.961Z,99809.09
2023-05-19T05:01:40.644Z,99812.53
2023-05-19T05:04:12.586Z,99812.72
2023-05-19T05:06:49.125Z,99818.69
2023-05-19T05:09:20.999Z,99825.84
2023-05-19T05:11:53.360Z,99825.59
2023-05-19T05:14:24.610Z,99825.97
2023-05-19T05:16:59.471Z,99817.69
2023-05-19T05:19:30.707Z,99825.31
2023-05-19T05:22:04.604Z,99825.03
2023-05-19T05:29:04.806Z,99818.53
2023-05-19T05:31:43.519Z,99819.06
2023-05-19T05:34:14.004Z,99824.81
2023-05-19T05:36:46.298Z,99821.91
2023-05-19T05:40:07.207Z,99816.47
2023-05-19T05:42:38.335Z,99821.41
2023-05-19T05:45:13.991Z,99824.25
2023-05-19T05:48:06.106Z,99825.63
2023-05-19T05:50:37.083Z,99828.63
2023-05-19T05:54:09.484Z,99832.63
2023-05-19T05:56:49.393Z,99820.19
2023-05-19T05:59:25.272Z,99831.00
2023-05-19T06:02:04.438Z,99823.66
2023-05-19T06:04:39.220Z,99819.84
2023-05-19T06:07:08.996Z,99823.72
2023-05-19T06:09:42.337Z,99828.59
2023-05-19T06:12:11.994Z,99829.44
2023-05-19T06:14:47.196Z,99821.19
2023-05-19T06:17:52.812Z,99815.88
2023-05-19T06:20:22.472Z,99813.31
2023-05-19T06:22:51.448Z,99815.19
2023-05-19T06:25:23.006Z,99818.31
2023-05-19T06:28:14.738Z,99814.16
2023-05-19T06:30:43.717Z,99813.00
2023-05-19T06:33:40.471Z,99812.22
2023-05-19T06:36:11.020Z,99805.22
2023-05-19T06:38:45.285Z,99797.59
2023-05-19T06:41:14.653Z,99804.47
2023-05-19T06:43:44.770Z,99799.25
2023-05-19T06:46:17.990Z,99806.94
2023-05-19T06:48:49.153Z,99806.94
2023-05-19T06:51:22.614Z,99804.63
2023-05-19T06:53:56.540Z,99803.31
2023-05-19T06:56:26.433Z,99810.00
2023-05-19T06:58:55.339Z,99812.59
2023-05-19T07:01:30.232Z,99806.00
2023-05-19T07:04:02.220Z,99806.50
2023-05-19T07:06:34.174Z,99805.81
2023-05-19T07:09:05.645Z,99793.50
2023-05-19T07:11:36.359Z,99805.06
2023-05-19T07:14:05.533Z,99803.22
2023-05-19T07:16:34.686Z,99804.03
2023-05-19T07:19:05.672Z,99807.66
2023-05-19T07:21:35.733Z,99796.66
2023-05-19T07:24:08.206Z,99799.59
2023-05-19T07:26:38.633Z,99795.50
2023-05-19T07:29:08.233Z,99791.28
2023-05-19T07:31:37.368Z,99797.81
2023-05-19T07:34:09.308Z,99794.28
2023-05-19T07:36:39.651Z,99785.88
2023-05-19T07:39:08.849Z,99789.47
2023-05-19T07:41:40.818Z,99785.88
2023-05-19T07:44:12.360Z,99785.09
2023-05-19T07:46:42.539Z,99787.44
2023-05-19T07:49:20.271Z,99784.16
2023-05-19T07:51:50.063Z,99778.88
2023-05-19T07:54:19.024Z,99792.81
2023-05-19T07:56:48.324Z,99796.47
2023-05-19T07:59:18.122Z,99792.47
2023-05-19T08:01:47.340Z,99796.44
2023-05-19T08:04:20.422Z,99780.44
2023-05-19T08:06:49.484Z,99776.13
2023-05-19T08:09:18.831Z,99772.50
2023-05-19T08:11:57.566Z,99785.59
2023-05-19T08:14:27.747Z,99782.22
2023-05-19T08:16:57.156Z,99777.44
2023-05-19T08:19:27.453Z,99769.13
2023-05-19T08:21:56.411Z,99782.38
2023-05-19T08:24:26.826Z,99779.88
2023-05-19T08:26:55.928Z,99782.56
2023-05-19T08:29:24.940Z,99775.34
2023-05-19T08:31:54.261Z,99766.47
2023-05-19T08:34:23.112Z,99771.88
2023-05-19T08:36:53.558Z,99764.66
2023-05-19T08:39:26.736Z,99770.19
2023-05-19T08:41:55.733Z,99765.38
2023-05-19T08:44:24.475Z,99759.63
2023-05-19T08:46:56.539Z,99758.31
2023-05-19T08:49:29.928Z,99764.22
2023-05-19T08:52:15.464Z,99758.56
2023-05-19T08:54:54.570Z,99759.75
2023-05-19T08:57:26.246Z,99756.72
2023-05-19T08:59:56.978Z,99744.69
2023-05-19T09:02:26.644Z,99742.19
2023-05-19T09:04:57.748Z,99742.09
2023-05-19T09:07:30.450Z,99736.09
2023-05-19T09:10:00.985Z,99745.28
2023-05-19T09:12:29.834Z,99742.19
2023-05-19T09:14:59.237Z,99742.38
2023-05-19T09:17:28.076Z,99733.19
2023-05-19T09:19:56.750Z,99741.16
2023-05-19T09:22:27.163Z,99740.16
2023-05-19T09:24:56.702Z,99744.75
2023-05-19T09:27:25.441Z,99740.47
2023-05-19T09:29:54.284Z,99729.44
2023-05-19T09:32:27.530Z,99737.13
2023-05-19T09:34:57.233Z,99731.81
2023-05-19T09:37:29.267Z,99733.59
2023-05-19T09:39:59.568Z,99723.44
2023-05-19T09:42:30.141Z,99719.06
2023-05-19T09:45:02.963Z,99720.22
2023-05-19T09:47:36.991Z,99718.41
2023-05-19T09:50:09.038Z,99730.25
2023-05-19T09:52:41.039Z,99721.97
2023-05-19T09:55:13.902Z,99713.97
2023-05-19T09:57:42.766Z,99706.06
2023-05-19T10:00:14.576Z,99712.13
2023-05-19T10:02:45.186Z,99705.03
2023-05-19T10:05:17.853Z,99701.81
2023-05-19T10:07:51.645Z,99697.25
2023-05-19T10:10:21.827Z,99700.75
2023-05-19T10:12:51.418Z,99700.72
2023-05-19T10:15:23.169Z,99711.56
2023-05-19T10:17:53.824Z,99702.63
2023-05-19T10:20:22.624Z,99709.97
2023-05-19T10:22:53.005Z,99702.38
2023-05-19T10:25:21.837Z,99692.63
2023-05-19T10:27:57.985Z,99693.16
2023-05-19T10:30:36.076Z,99694.25
2023-05-19T10:33:10.827Z,99697.78
2023-05-19T10:36:11.467Z,99693.69
2023-05-19T10:38:50.128Z,99694.72
2023-05-19T10:41:29.834Z,99693.34
2023-05-19T10:44:13.701Z,99702.78
2023-05-19T10:46:43.202Z,99692.50
2023-05-19T10:49:12.287Z,99685.66
2023-05-19T10:51:41.130Z,99692.34
2023-05-19T10:54:14.426Z,99691.06
2023-05-19T10:56:47.353Z,99685.91
2023-05-19T10:59:39.976Z,99694.16
2023-05-19T11:02:10.330Z,99687.69
2023-05-19T11:04:51.804Z,99707.09
2023-05-19T11:07:24.702Z,99688.06
2023-05-19T11:09:55.613Z,99698.97
2023-05-19T11:12:25.580Z,99693.66
2023-05-19T11:14:55.787Z,99688.06
2023-05-19T11:17:27.530Z,99686.97
2023-05-19T11:20:00.263Z,99683.94
2023-05-19T11:22:29.995Z,99680.69
2023-05-19T11:25:01.229Z,99669.91
2023-05-19T11:27:32.826Z,99670.88
2023-05-19T11:30:12.122Z,99681.38
2023-05-19T11:32:42.910Z,99668.88
2023-05-19T11:35:14.216Z,99667.47
2023-05-19T11:37:44.964Z,99667.66
2023-05-19T11:40:17.774Z,99658.66
2023-05-19T11:42:46.706Z,99662.06
2023-05-19T11:45:15.443Z,99668.56
2023-05-19T11:48:01.343Z,99676.13
2023-05-19T11:50:33.620Z,99673.84
2023-05-19T11:53:05.687Z,99672.88
2023-05-19T11:55:36.911Z,99676.91
2023-05-19T11:58:07.212Z,99663.22
2023-05-19T12:00:40.347Z,99671.59
2023-05-19T12:03:12.448Z,99675.88
2023-05-19T12:05:48.638Z,99671.19
2023-05-19T12:08:19.747Z,99674.00
2023-05-19T12:10:54.650Z,99676.66
2023-05-19T12:13:26.830Z,99669.78
2023-05-19T12:16:02.581Z,99669.69
2023-05-19T12:18:40.833Z,99656.88
2023-05-19T12:21:12.739Z,99662.03
2023-05-19T12:23:45.476Z,99663.34
2023-05-19T12:26:18.275Z,99646.47
2023-05-19T12:28:47.946Z,99651.81
2023-05-19T12:31:18.677Z,99656.97
2023-05-19T12:33:52.129Z,99645.53
2023-05-19T12:36:23.048Z,99655.50
2023-05-19T12:38:56.860Z,99659.44
2023-05-19T12:41:28.501Z,99669.72
2023-05-19T12:43:57.858Z,99652.47
2023-05-19T12:46:26.607Z,99651.59
2023-05-19T12:49:01.980Z,99650.78
2023-05-19T12:51:30.716Z,99645.44
2023-05-19T12:53:59.777Z,99643.72
2023-05-19T12:56:30.342Z,99645.88
2023-05-19T12:59:02.935Z,99652.91
2023-05-19T13:01:32.416Z,99642.44
2023-05-19T13:04:02.133Z,99632.28
2023-05-19T13:06:33.259Z,99637.22
2023-05-19T13:09:01.943Z,99645.09
2023-05-19T13:11:32.699Z,99641.84
2023-05-19T13:14:01.796Z,99644.69
2023-05-19T13:16:30.779Z,99643.72
2023-05-19T13:18:59.648Z,99640.63
2023-05-19T13:21:28.842Z,99642.59
2023-05-19T13:23:57.786Z,99643.22
2023-05-19T13:26:26.918Z,99644.41
2023-05-19T13:28:58.006Z,99651.13
2023-05-19T13:31:26.927Z,99658.94
2023-05-19T13:33:55.898Z,99653.31
2023-05-19T13:36:28.057Z,99658.91
2023-05-19T13:38:58.124Z,99659.25
2023-05-19T13:41:29.310Z,99653.00
2023-05-19T13:44:00.744Z,99648.97
2023-05-19T13:46:40.827Z,99656.53
2023-05-19T13:49:13.906Z,99654.63
2023-05-19T13:51:44.915Z,99658.69
2023-05-19T13:54:18.019Z,99661.50
2023-05-19T13:56:48.768Z,99659.91
2023-05-19T13:59:18.955Z,99662.63
2023-05-19T14:01:48.220Z,99656.16
2023-05-19T14:04:20.860Z,99652.88
2023-05-19T14:06:49.713Z,99649.09
2023-05-19T14:09:18.605Z,99650.72
2023-05-19T14:11:48.564Z,99649.91
2023-05-19T14:14:18.732Z,99649.03
2023-05-19T14:16:47.461Z,99655.88
2023-05-19T14:19:16.605Z,99652.34
2023-05-19T14:21:45.732Z,99653.97
2023-05-19T14:24:14.713Z,99648.53
2023-05-19T14:26:43.435Z,99647.22
2023-05-19T14:29:12.776Z,99647.78
2023-05-19T14:31:43.072Z,99648.59
2023-05-19T14:34:11.980Z,99650.00
2023-05-19T14:36:40.644Z,99653.00
2023-05-19T14:39:09.628Z,99650.03
2023-05-19T14:41:38.701Z,99648.66
2023-05-19T14:44:07.891Z,99648.66
2023-05-19T14:46:37.410Z,99651.41
2023-05-19T14:49:08.091Z,99654.94
2023-05-19T14:51:40.043Z,99649.22
2023-05-19T14:54:09.030Z,99649.19
2023-05-19T14:56:38.296Z,99657.06
2023-05-19T14:59:07.101Z,99651.34
2023-05-19T15:01:35.835Z,99657.34
2023-05-19T15:04:08.106Z,99649.72
2023-05-19T15:06:36.925Z,99670.34
2023-05-19T15:09:06.487Z,99658.44
2023-05-19T15:11:35.348Z,99657.88
2023-05-19T15:14:04.259Z,99656.25
2023-05-19T15:16:33.188Z,99653.53
2023-05-19T15:19:02.099Z,99655.69
2023-05-19T15:21:32.652Z,99651.41
2023-05-19T15:24:02.393Z,99651.38
2023-05-19T15:26:31.770Z,99650.28
2023-05-19T15:29:00.965Z,99639.72
2023-05-19T15:31:29.845Z,99652.19
2023-05-19T15:33:58.659Z,99658.44
2023-05-19T15:36:28.427Z,99657.06
2023-05-19T15:38:58.692Z,99657.31
2023-05-19T15:41:27.386Z,99667.63
2023-05-19T15:43:57.804Z,99668.69
2023-05-19T15:46:27.303Z,99671.09
2023-05-19T15:48:56.798Z,99676.25
2023-05-19T15:51:27.458Z,99673.47
2023-05-19T15:53:57.896Z,99676.16
2023-05-19T15:56:27.340Z,99682.41
2023-05-19T15:58:56.182Z,99672.94
2023-05-19T16:01:25.348Z,99670.78
2023-05-19T16:03:54.308Z,99683.25
2023-05-19T16:06:24.665Z,99684.34
2023-05-19T16:08:53.456Z,99695.16
2023-05-19T16:11:23.877Z,99690.31
2023-05-19T16:13:53.416Z,99700.06
2023-05-19T16:16:22.178Z,99699.47
2023-05-19T16:18:52.381Z,99699.44
2023-05-19T16:21:21.953Z,99691.56
2023-05-19T16:23:52.384Z,99692.03
2023-05-19T16:26:30.878Z,99693.41
2023-05-19T16:29:00.799Z,99690.66
2023-05-19T16:31:30.139Z,99697.94
2023-05-19T16:34:02.416Z,99694.97
2023-05-19T16:36:33.607Z,99702.78
2023-05-19T16:39:03.239Z,99698.16
2023-05-19T16:41:36.067Z,99700.88
2023-05-19T16:44:07.383Z,99704.94
2023-05-19T16:46:41.582Z,99698.16
2023-05-19T16:49:13.750Z,99697.63
2023-05-19T16:51:45.725Z,99703.84
2023-05-19T16:54:17.482Z,99701.31
2023-05-19T16:56:53.326Z,99702.69
2023-05-19T16:59:28.709Z,99697.97
2023-05-19T17:01:58.366Z,99696.59
2023-05-19T17:04:30.746Z,99705.50
2023-05-19T17:07:03.826Z,99696.50
2023-05-19T17:09:37.560Z,99691.88
2023-05-19T17:12:10.647Z,99690.75
2023-05-19T17:14:44.122Z,99698.31
2023-05-19T17:17:20.705Z,99693.44
2023-05-19T17:19:53.046Z,99696.66
2023-05-19T17:22:27.840Z,99695.84
2023-05-19T17:24:58.855Z,99694.75
2023-05-19T17:27:31.564Z,99695.97
2023-05-19T17:30:02.559Z,99693.31
2023-05-19T17:32:42.471Z,99699.78
2023-05-19T17:35:23.381Z,99704.22
2023-05-19T17:37:53.852Z,99714.63
2023-05-19T17:40:27.201Z,99716.03
2023-05-19T17:42:57.425Z,99712.56
2023-05-19T17:45:27.721Z,99718.50
2023-05-19T17:47:57.920Z,99714.44
2023-05-19T17:50:28.188Z,99706.50
2023-05-19T17:52:57.683Z,99706.69
2023-05-19T17:55:30.394Z,99704.75
2023-05-19T17:58:04.115Z,99702.03
2023-05-19T18:00:33.958Z,99698.31
2023-05-19T18:03:06.282Z,99702.09
2023-05-19T18:05:37.577Z,99696.56
2023-05-19T18:08:09.464Z,99702.78
2023-05-19T18:10:42.247Z,99696.25
2023-05-19T18:13:14.166Z,99704.16
2023-05-19T18:15:44.086Z,99704.13
2023-05-19T18:18:13.005Z,99701.38
2023-05-19T18:20:45.725Z,99708.66
2023-05-19T18:23:14.576Z,99707.28
2023-05-19T18:25:50.421Z,99702.19
2023-05-19T18:28:21.279Z,99700.44
2023-05-19T18:31:00.203Z,99705.84
2023-05-19T18:33:31.346Z,99701.13
2023-05-19T18:36:00.549Z,99707.03
2023-05-19T18:38:30.382Z,99710.81
2023-05-19T18:41:00.946Z,99714.75
2023-05-19T18:43:34.258Z,99710.19
2023-05-19T18:46:03.015Z,99712.63
2023-05-19T18:48:33.227Z,99706.72
2023-05-19T18:51:03.960Z,99712.38
2023-05-19T18:53:35.667Z,99716.16
2023-05-19T18:56:05.712Z,99714.00
2023-05-19T18:58:36.261Z,99712.44
2023-05-19T19:01:08.725Z,99722.28
2023-05-19T19:03:37.429Z,99725.75
2023-05-19T19:06:07.262Z,99717.09
2023-05-19T19:08:35.926Z,99715.94
2023-05-19T19:11:09.264Z,99727.25
2023-05-19T19:13:39.613Z,99719.72
2023-05-19T19:16:09.619Z,99718.09
2023-05-19T19:18:38.686Z,99720.72
2023-05-19T19:21:07.668Z,99729.69
2023-05-19T19:23:36.348Z,99728.16
2023-05-19T19:26:05.166Z,99727.59
2023-05-19T19:28:33.929Z,99723.81
2023-05-19T19:31:04.194Z,99735.84
2023-05-19T19:33:33.981Z,99725.94
2023-05-19T19:36:03.031Z,99730.53
2023-05-19T19:38:31.975Z,99729.44
2023-05-19T19:41:00.813Z,99725.63
2023-05-19T19:43:29.541Z,99722.34
2023-05-19T19:46:04.611Z,99727.34
2023-05-19T19:48:33.384Z,99729.22
2023-05-19T19:51:02.179Z,99724.31
2023-05-19T19:53:30.944Z,99727.00
2023-05-19T19:56:00.987Z,99727.25
2023-05-19T19:58:30.547Z,99724.47
2023-05-19T20:01:00.070Z,99728.19
2023-05-19T20:03:31.769Z,99723.50
2023-05-19T20:06:00.823Z,99725.47
2023-05-19T20:08:29.574Z,99726.81
2023-05-19T20:10:58.336Z,99734.09
2023-05-19T20:13:27.091Z,99733.81
2023-05-19T20:15:56.204Z,99734.97
2023-05-19T20:18:25.889Z,99736.78
2023-05-19T20:20:55.951Z,99731.38
2023-05-19T20:23:24.693Z,99736.53
2023-05-19T20:26:09.919Z,99734.16
2023-05-19T20:28:40.434Z,99734.81
2023-05-19T20:31:09.431Z,99728.44
2023-05-19T20:33:38.126Z,99738.72
2023-05-19T20:36:08.663Z,99735.16
2023-05-19T20:38:37.400Z,99730.31
2023-05-19T20:41:06.282Z,99735.38
2023-05-19T20:43:35.168Z,99726.00
2023-05-19T20:48:51.999Z,99730.41
2023-05-19T20:51:25.202Z,99733.91
2023-05-19T20:53:53.900Z,99731.13
2023-05-19T20:56:23.334Z,99725.34
2023-05-19T20:58:52.050Z,99729.91
2023-05-19T21:01:20.818Z,99729.91
2023-05-19T21:03:49.527Z,99726.81
2023-05-19T21:06:18.283Z,99716.53
2023-05-19T21:08:48.419Z,99711.34
2023-05-19T21:11:17.144Z,99720.59
2023-05-19T21:13:45.953Z,99727.06
2023-05-19T21:16:14.659Z,99730.88
2023-05-19T21:18:43.426Z,99726.91
2023-05-19T21:21:12.207Z,99726.34
2023-05-19T21:23:40.988Z,99730.88
2023-05-19T21:26:11.078Z,99729.25
2023-05-19T21:28:39.864Z,99740.94
2023-05-19T21:31:08.610Z,99729.03
2023-05-19T21:33:37.378Z,99725.84
2023-05-19T21:36:06.875Z,99732.06
2023-05-19T21:38:35.650Z,99729.44
2023-05-19T21:41:04.378Z,99730.09
2023-05-19T21:43:34.489Z,99731.09
2023-05-19T21:46:03.140Z,99725.09
2023-05-19T21:48:31.874Z,99724.03
2023-05-19T21:51:00.543Z,99726.75
2023-05-19T21:53:29.315Z,99725.16
2023-05-19T21:55:58.094Z,99718.81
2023-05-19T21:58:27.025Z,99720.44
2023-05-19T22:00:57.107Z,99720.91
2023-05-19T22:03:26.278Z,99721.56
2023-05-19T22:05:56.249Z,99716.84
2023-05-19T22:08:26.093Z,99714.97
2023-05-19T22:10:54.982Z,99715.53
2023-05-19T22:13:23.807Z,99715.44
2023-05-19T22:15:52.594Z,99716.59
2023-05-19T22:18:22.783Z,99724.03
2023-05-19T22:20:51.506Z,99718.06
2023-05-19T22:23:20.277Z,99721.56
2023-05-19T22:25:48.997Z,99719.78
2023-05-19T22:28:17.764Z,99721.97
2023-05-19T22:30:46.690Z,99722.50
2023-05-19T22:33:15.431Z,99717.09
2023-05-19T22:35:46.060Z,99721.41
2023-05-19T22:38:14.753Z,99720.44
2023-05-19T22:40:43.473Z,99716.03
2023-05-19T22:43:12.275Z,99720.91
2023-05-19T22:45:41.216Z,99718.31
2023-05-19T22:48:10.077Z,99713.25
2023-05-19T22:50:38.832Z,99714.88
2023-05-19T22:53:08.922Z,99713.56
2023-05-19T22:55:37.613Z,99709.50
2023-05-19T22:58:07.440Z,99707.34
2023-05-19T23:00:36.200Z,99697.91
2023-05-19T23:03:05.181Z,99696.25
2023-05-19T23:05:34.139Z,99697.72
2023-05-19T23:08:03.089Z,99694.28
2023-05-19T23:10:33.207Z,99698.88
2023-05-19T23:13:01.878Z,99699.19
2023-05-19T23:15:30.636Z,99696.63
2023-05-19T23:18:01.296Z,99698.44
2023-05-19T23:20:30.329Z,99701.59
2023-05-19T23:22:59.048Z,99699.59
2023-05-19T23:25:27.791Z,99694.91
2023-05-19T23:27:57.959Z,99702.78
2023-05-19T23:30:26.664Z,99707.00
2023-05-19T23:32:55.372Z,99714.84
2023-05-19T23:35:24.250Z,99711.31
2023-05-19T23:37:54.292Z,99705.16
2023-05-19T23:40:23.227Z,99701.88
2023-05-19T23:42:51.930Z,99712.66
2023-05-19T23:45:22.046Z,99706.22
2023-05-19T23:47:50.842Z,99707.88
2023-05-19T23:50:19.695Z,99710.16
2023-05-19T23:52:49.503Z,99714.88
2023-05-19T23:55:18.502Z,99713.81
2023-05-19T23:57:47.256Z,99709.00
